Time;durP1;ratioP1;P1;durP2;ratioP2;P2;SDS_P1;SDS_P2;PMS_P1;PMS_P2;Temp;Humidity;BMP_temperature;BMP_pressure;BME280_temperature;BME280_humidity;BME280_pressure;Samples;Min_cycle;Max_cycle;Signal;HPM_P1;HPM_P2
2022/07/05 00:01:32;;;;;;;;;;;16.00;99.90;;;;;;5124223;27;19912;-54
2022/07/05 00:04:12;;;;;;;;;;;16.10;99.90;;;;;;5124815;27;19912;-53
2022/07/05 00:09:51;;;;;;;;;;;16.20;99.90;;;;;;5123651;27;20365;-55
2022/07/05 00:12:32;;;;;;;;;;;16.30;99.90;;;;;;5124697;27;19911;-54
2022/07/05 00:15:12;;;;;;;;;;;16.20;99.90;;;;;;5118194;27;19916;-53
2022/07/05 00:17:52;;;;;;;;;;;16.20;99.90;;;;;;5123504;27;19912;-54
2022/07/05 00:20:32;;;;;;;;;;;16.30;99.90;;;;;;5104006;27;19915;-54
2022/07/05 00:23:12;;;;;;;;;;;16.30;99.90;;;;;;5124844;27;20404;-55
2022/07/05 00:25:52;;;;;;;;;;;16.30;99.90;;;;;;5124405;27;19911;-56
2022/07/05 00:28:31;;;;;;;;;;;16.30;99.90;;;;;;5125253;27;19926;-53
2022/07/05 00:31:11;;;;;;;;;;;16.20;99.90;;;;;;5124378;27;19926;-52
2022/07/05 00:33:51;;;;;;;;;;;16.20;99.90;;;;;;5103582;27;19915;-53
2022/07/05 00:36:31;;;;;;;;;;;16.10;99.90;;;;;;5124135;27;19918;-53
2022/07/05 00:39:12;;;;;;;;;;;16.10;99.90;;;;;;5124178;27;20095;-55
2022/07/05 00:41:52;;;;;;;;;;;16.00;99.90;;;;;;5124750;27;19912;-54
2022/07/05 00:44:34;;;;;;;;;;;16.00;99.90;;;;;;5103574;27;19953;-53
2022/07/05 00:47:15;;;;;;;;;;;15.90;99.90;;;;;;5102896;27;19912;-55
2022/07/05 00:49:55;;;;;;;;;;;15.90;99.90;;;;;;5083111;28;20318;-54
2022/07/05 00:52:35;;;;;;;;;;;15.80;99.90;;;;;;5124661;27;20404;-54
2022/07/05 00:55:16;;;;;;;;;;;15.90;99.90;;;;;;5145358;27;19918;-53
2022/07/05 00:57:56;;;;;;;;;;;15.90;99.90;;;;;;5124057;27;19915;-53
2022/07/05 01:00:36;;;;;;;;;;;15.90;99.90;;;;;;5124604;27;20325;-54
2022/07/05 01:03:16;;;;;;;;;;;15.90;99.90;;;;;;5124755;27;19912;-53
2022/07/05 01:05:56;;;;;;;;;;;15.80;99.90;;;;;;5111694;27;20381;-54
2022/07/05 01:08:38;;;;;;;;;;;15.70;99.90;;;;;;5124603;27;19916;-53
2022/07/05 01:11:18;;;;;;;;;;;15.70;99.90;;;;;;5103258;27;19923;-52
2022/07/05 01:13:59;;;;;;;;;;;15.70;99.90;;;;;;5103794;27;19946;-53
2022/07/05 01:16:40;;;;;;;;;;;15.60;99.90;;;;;;5123614;27;20106;-54
2022/07/05 01:19:20;;;;;;;;;;;15.60;99.90;;;;;;5124549;27;19912;-55
2022/07/05 01:22:03;;;;;;;;;;;15.60;99.90;;;;;;5123967;27;19919;-53
2022/07/05 01:24:44;;;;;;;;;;;15.50;99.90;;;;;;5123910;27;19915;-54
2022/07/05 01:27:24;;;;;;;;;;;15.30;99.90;;;;;;5123656;27;20308;-56
2022/07/05 01:30:04;;;;;;;;;;;15.20;99.90;;;;;;5123831;27;20401;-53
2022/07/05 01:32:43;;;;;;;;;;;15.00;99.90;;;;;;5124442;27;19918;-53
2022/07/05 01:35:23;;;;;;;;;;;15.00;99.90;;;;;;5116583;27;19912;-53
2022/07/05 01:38:04;;;;;;;;;;;14.90;99.90;;;;;;5123649;27;19911;-53
2022/07/05 01:40:44;;;;;;;;;;;14.80;99.90;;;;;;5124102;27;19911;-54
2022/07/05 01:43:24;;;;;;;;;;;14.70;99.90;;;;;;5124535;27;20077;-52
2022/07/05 01:46:06;;;;;;;;;;;14.60;99.90;;;;;;5110330;27;19916;-55
2022/07/05 01:48:46;;;;;;;;;;;14.50;99.90;;;;;;5139884;27;19911;-54
2022/07/05 01:51:27;;;;;;;;;;;14.50;99.90;;;;;;5123369;27;19922;-54
2022/07/05 01:54:08;;;;;;;;;;;14.50;99.90;;;;;;5124114;27;20379;-54
2022/07/05 01:56:48;;;;;;;;;;;14.50;99.90;;;;;;5123353;27;19912;-53
2022/07/05 01:59:28;;;;;;;;;;;14.40;99.90;;;;;;5124007;27;19912;-52
2022/07/05 02:02:09;;;;;;;;;;;14.40;99.90;;;;;;5123884;27;19911;-55
2022/07/05 02:04:49;;;;;;;;;;;14.30;99.90;;;;;;5134028;27;19912;-54
2022/07/05 02:07:29;;;;;;;;;;;14.30;99.90;;;;;;5107581;22;19929;-55
2022/07/05 02:10:09;;;;;;;;;;;14.30;99.90;;;;;;5103194;27;20301;-55
2022/07/05 02:12:50;;;;;;;;;;;14.20;99.90;;;;;;5124248;27;20004;-55
2022/07/05 02:15:33;;;;;;;;;;;14.30;99.90;;;;;;5124639;27;19912;-55
2022/07/05 02:18:13;;;;;;;;;;;14.20;99.90;;;;;;5126204;27;19916;-55
2022/07/05 02:20:55;;;;;;;;;;;14.10;99.90;;;;;;5103332;27;19920;-55
2022/07/05 02:23:34;;;;;;;;;;;14.00;99.90;;;;;;5124242;27;20342;-55
2022/07/05 02:26:17;;;;;;;;;;;13.90;99.90;;;;;;5123273;27;19912;-55
2022/07/05 02:28:59;;;;;;;;;;;13.90;99.90;;;;;;5123327;27;19912;-55
2022/07/05 02:31:39;;;;;;;;;;;13.80;99.90;;;;;;5103760;27;19927;-55
2022/07/05 02:34:20;;;;;;;;;;;13.80;99.90;;;;;;5123547;27;20385;-55
2022/07/05 02:37:00;;;;;;;;;;;13.80;99.90;;;;;;5113020;27;19912;-55
2022/07/05 02:39:41;;;;;;;;;;;13.70;99.90;;;;;;5103606;27;20327;-55
2022/07/05 02:42:23;;;;;;;;;;;13.60;99.90;;;;;;5124753;27;19912;-55
2022/07/05 02:45:03;;;;;;;;;;;13.50;99.90;;;;;;5103493;27;19946;-55
2022/07/05 02:47:44;;;;;;;;;;;13.40;99.90;;;;;;5121377;27;20376;-55
2022/07/05 02:50:26;;;;;;;;;;;13.40;99.90;;;;;;5123872;27;19919;-55
2022/07/05 02:53:07;;;;;;;;;;;13.30;99.90;;;;;;5124182;27;19912;-55
2022/07/05 02:55:47;;;;;;;;;;;13.30;99.90;;;;;;5123563;27;19916;-55
2022/07/05 02:58:27;;;;;;;;;;;13.30;99.90;;;;;;5124400;27;19920;-55
2022/07/05 03:01:08;;;;;;;;;;;13.30;99.90;;;;;;5124023;27;19911;-55
2022/07/05 03:03:51;;;;;;;;;;;13.20;99.90;;;;;;5104169;27;19926;-55
2022/07/05 03:06:33;;;;;;;;;;;13.10;99.90;;;;;;5103143;27;19912;-55
2022/07/05 03:09:14;;;;;;;;;;;13.10;99.90;;;;;;5144673;27;20296;-55
2022/07/05 03:11:54;;;;;;;;;;;13.20;99.90;;;;;;5124464;27;19912;-55
2022/07/05 03:14:34;;;;;;;;;;;13.00;99.90;;;;;;5124383;27;19920;-56
2022/07/05 03:17:13;;;;;;;;;;;13.00;99.90;;;;;;5110579;27;19922;-55
2022/07/05 03:19:55;;;;;;;;;;;13.00;99.90;;;;;;5105975;27;19916;-55
2022/07/05 03:22:36;;;;;;;;;;;13.10;99.90;;;;;;5124638;27;19918;-55
2022/07/05 03:25:18;;;;;;;;;;;13.10;99.90;;;;;;5124612;27;19920;-55
2022/07/05 03:27:58;;;;;;;;;;;13.00;99.90;;;;;;5123429;27;19920;-55
2022/07/05 03:30:39;;;;;;;;;;;13.00;99.90;;;;;;5103650;27;19916;-55
2022/07/05 03:33:20;;;;;;;;;;;13.00;99.90;;;;;;5124143;27;19915;-56
2022/07/05 03:36:02;;;;;;;;;;;13.10;99.90;;;;;;5121446;27;19912;-55
2022/07/05 03:38:43;;;;;;;;;;;13.10;99.90;;;;;;5124678;27;19916;-55
2022/07/05 03:41:23;;;;;;;;;;;13.20;99.90;;;;;;5124646;27;20288;-55
2022/07/05 03:44:05;;;;;;;;;;;13.30;99.90;;;;;;5124931;27;19926;-55
2022/07/05 03:46:46;;;;;;;;;;;13.40;99.90;;;;;;5115376;27;20369;-55
2022/07/05 03:49:27;;;;;;;;;;;13.50;99.90;;;;;;5089345;27;19954;-56
2022/07/05 03:52:09;;;;;;;;;;;13.60;99.90;;;;;;5123898;27;20022;-55
2022/07/05 03:54:49;;;;;;;;;;;13.60;99.90;;;;;;5124552;27;19912;-55
2022/07/05 03:57:28;;;;;;;;;;;13.70;99.90;;;;;;5095451;27;19946;-55
2022/07/05 04:00:09;;;;;;;;;;;13.80;99.90;;;;;;5121460;27;19911;-55
2022/07/05 04:03:03;;;;;;;;;;;13.80;99.90;;;;;;5122488;27;19963;-56
2022/07/05 04:05:44;;;;;;;;;;;14.00;99.90;;;;;;5124071;27;19915;-56
2022/07/05 04:08:24;;;;;;;;;;;14.10;99.90;;;;;;5104177;27;19923;-55
2022/07/05 04:11:04;;;;;;;;;;;14.30;99.90;;;;;;5118136;27;19916;-55
2022/07/05 04:13:43;;;;;;;;;;;14.60;99.90;;;;;;5115278;27;19922;-55
2022/07/05 04:16:25;;;;;;;;;;;14.80;99.90;;;;;;5110536;27;19926;-55
2022/07/05 04:19:06;;;;;;;;;;;15.10;99.90;;;;;;5122577;27;19915;-55
2022/07/05 04:21:49;;;;;;;;;;;16.10;99.90;;;;;;5103278;27;19961;-55
2022/07/05 04:24:31;;;;;;;;;;;17.70;99.90;;;;;;5124093;27;19915;-55
2022/07/05 04:27:12;;;;;;;;;;;19.10;99.90;;;;;;5102327;27;19949;-56
2022/07/05 04:29:52;;;;;;;;;;;20.20;99.90;;;;;;5123945;27;20405;-55
2022/07/05 04:32:32;;;;;;;;;;;21.10;99.90;;;;;;5104097;27;20410;-55
2022/07/05 04:35:12;;;;;;;;;;;21.90;99.90;;;;;;5124338;27;19911;-55
2022/07/05 04:37:51;;;;;;;;;;;22.40;99.90;;;;;;5123169;27;19912;-56
2022/07/05 04:40:33;;;;;;;;;;;22.80;99.90;;;;;;5123989;27;19915;-55
2022/07/05 04:43:14;;;;;;;;;;;23.10;99.90;;;;;;5091178;27;19916;-55
2022/07/05 04:45:54;;;;;;;;;;;23.30;99.90;;;;;;5121120;27;19916;-55
2022/07/05 04:48:36;;;;;;;;;;;22.80;99.90;;;;;;5121048;27;19923;-56
2022/07/05 04:51:15;;;;;;;;;;;21.70;99.90;;;;;;5102684;27;20203;-55
2022/07/05 04:53:55;;;;;;;;;;;21.00;99.90;;;;;;5123253;27;19922;-56
2022/07/05 04:56:35;;;;;;;;;;;20.50;99.90;;;;;;5122461;27;19918;-55
2022/07/05 04:59:15;;;;;;;;;;;20.30;99.90;;;;;;5122652;27;19922;-55
2022/07/05 05:01:55;;;;;;;;;;;20.50;99.90;;;;;;5122619;27;20373;-56
2022/07/05 05:04:35;;;;;;;;;;;20.30;99.90;;;;;;5102814;27;19926;-55
2022/07/05 05:07:14;;;;;;;;;;;20.80;99.90;;;;;;5114047;27;19922;-55
2022/07/05 05:09:54;;;;;;;;;;;21.20;99.90;;;;;;5122951;27;19916;-55
2022/07/05 05:12:34;;;;;;;;;;;20.70;99.90;;;;;;5123762;27;19915;-54
2022/07/05 05:15:14;;;;;;;;;;;20.10;99.90;;;;;;5103224;27;20419;-55
2022/07/05 05:17:54;;;;;;;;;;;19.60;99.90;;;;;;5123381;27;19912;-57
2022/07/05 05:20:33;;;;;;;;;;;19.40;99.90;;;;;;5124438;27;19926;-57
2022/07/05 05:23:13;;;;;;;;;;;19.40;99.90;;;;;;5104088;27;19916;-57
2022/07/05 05:25:53;;;;;;;;;;;19.20;99.90;;;;;;5123575;27;19912;-56
2022/07/05 05:28:33;;;;;;;;;;;19.20;99.90;;;;;;5103273;27;19912;-56
2022/07/05 05:31:13;;;;;;;;;;;19.20;99.90;;;;;;5103536;27;19926;-58
2022/07/05 05:33:53;;;;;;;;;;;19.00;99.90;;;;;;5124650;27;19911;-56
2022/07/05 05:36:32;;;;;;;;;;;18.90;99.90;;;;;;5075347;28;19913;-56
2022/07/05 05:39:12;;;;;;;;;;;18.80;99.90;;;;;;5103209;27;19970;-56
2022/07/05 05:41:52;;;;;;;;;;;19.20;99.90;;;;;;5123326;27;19981;-56
2022/07/05 05:44:32;;;;;;;;;;;19.40;99.90;;;;;;5144761;27;19911;-58
2022/07/05 05:47:12;;;;;;;;;;;19.30;99.90;;;;;;5110219;27;19912;-57
2022/07/05 05:49:52;;;;;;;;;;;19.20;99.90;;;;;;5124029;27;19918;-58
2022/07/05 05:52:31;;;;;;;;;;;19.00;99.90;;;;;;5124793;27;19912;-58
2022/07/05 05:55:12;;;;;;;;;;;19.00;99.90;;;;;;5124522;27;19912;-57
2022/07/05 05:57:53;;;;;;;;;;;19.40;99.90;;;;;;5103264;27;19916;-58
2022/07/05 06:00:33;;;;;;;;;;;20.00;99.90;;;;;;5104003;27;19918;-57
2022/07/05 06:03:12;;;;;;;;;;;20.60;99.90;;;;;;5124640;27;19912;-57
2022/07/05 06:05:52;;;;;;;;;;;20.80;99.90;;;;;;5122863;27;19916;-57
2022/07/05 06:08:32;;;;;;;;;;;20.90;99.90;;;;;;5124757;27;19918;-56
2022/07/05 06:11:13;;;;;;;;;;;21.10;99.90;;;;;;5103596;27;19926;-56
2022/07/05 06:13:53;;;;;;;;;;;21.30;99.90;;;;;;5124990;27;19912;-57
2022/07/05 06:16:33;;;;;;;;;;;21.40;99.90;;;;;;5117198;27;19919;-57
2022/07/05 06:19:13;;;;;;;;;;;21.20;99.90;;;;;;5083472;28;20517;-57
2022/07/05 06:21:53;;;;;;;;;;;21.30;99.90;;;;;;5124260;27;20384;-56
2022/07/05 06:24:33;;;;;;;;;;;21.30;99.90;;;;;;5124986;27;20436;-57
2022/07/05 06:27:12;;;;;;;;;;;21.40;99.90;;;;;;5112307;27;19926;-57
2022/07/05 06:29:52;;;;;;;;;;;21.70;99.90;;;;;;5103853;27;19965;-57
2022/07/05 06:32:32;;;;;;;;;;;21.90;99.90;;;;;;5103889;27;19953;-57
2022/07/05 06:35:12;;;;;;;;;;;22.00;99.90;;;;;;5104146;27;20585;-57
2022/07/05 06:37:54;;;;;;;;;;;22.00;97.50;;;;;;5123922;27;19911;-57
2022/07/05 06:40:35;;;;;;;;;;;22.20;97.40;;;;;;5104431;27;20373;-56
2022/07/05 06:43:16;;;;;;;;;;;22.10;92.40;;;;;;5125486;27;19912;-55
2022/07/05 06:46:10;;;;;;;;;;;22.00;93.10;;;;;;5120454;27;19926;-55
2022/07/05 06:48:50;;;;;;;;;;;21.90;94.80;;;;;;5103958;27;19930;-56
2022/07/05 06:51:30;;;;;;;;;;;22.00;94.70;;;;;;5124935;27;19916;-56
2022/07/05 06:54:10;;;;;;;;;;;22.10;92.60;;;;;;5103894;27;19953;-57
2022/07/05 06:56:50;;;;;;;;;;;22.10;94.50;;;;;;5123424;27;19918;-56
2022/07/05 06:59:30;;;;;;;;;;;22.40;93.90;;;;;;5124490;27;19911;-56
2022/07/05 07:02:09;;;;;;;;;;;22.60;89.30;;;;;;5124659;27;20423;-55
2022/07/05 07:04:49;;;;;;;;;;;22.60;86.20;;;;;;5124334;27;19918;-55
2022/07/05 07:10:32;;;;;;;;;;;22.80;90.50;;;;;;5124578;27;20035;-56
2022/07/05 07:13:13;;;;;;;;;;;23.10;83.40;;;;;;5124534;27;19916;-55
2022/07/05 07:15:52;;;;;;;;;;;23.40;80.00;;;;;;5101914;27;19912;-56
2022/07/05 07:18:33;;;;;;;;;;;23.80;77.60;;;;;;5124585;27;19912;-56
2022/07/05 07:21:14;;;;;;;;;;;24.20;72.00;;;;;;5124182;27;19920;-57
2022/07/05 07:23:54;;;;;;;;;;;24.30;66.00;;;;;;5104329;27;19912;-57
2022/07/05 07:27:02;;;;;;;;;;;24.30;65.00;;;;;;5103148;27;19915;-57
2022/07/05 07:29:35;;;;;;;;;;;24.70;64.50;;;;;;5124969;27;19912;-56
2022/07/05 07:32:15;;;;;;;;;;;25.10;59.40;;;;;;5125173;27;19912;-57
2022/07/05 07:34:55;;;;;;;;;;;25.10;58.40;;;;;;5145154;27;19915;-57
2022/07/05 07:37:35;;;;;;;;;;;25.60;56.60;;;;;;5124002;27;19912;-57
2022/07/05 07:40:15;;;;;;;;;;;26.10;53.90;;;;;;5124530;27;19915;-57
2022/07/05 07:42:55;;;;;;;;;;;26.50;50.90;;;;;;5124755;27;20334;-57
2022/07/05 07:45:35;;;;;;;;;;;26.50;50.40;;;;;;5103974;27;19926;-57
2022/07/05 07:48:14;;;;;;;;;;;26.30;49.60;;;;;;5144651;27;19925;-56
2022/07/05 07:50:54;;;;;;;;;;;26.40;50.60;;;;;;5083373;28;19912;-57
2022/07/05 07:53:34;;;;;;;;;;;26.80;48.90;;;;;;5124954;27;19920;-56
2022/07/05 07:56:14;;;;;;;;;;;26.90;48.70;;;;;;5082410;28;20347;-57
2022/07/05 07:58:54;;;;;;;;;;;26.90;48.00;;;;;;5083330;28;20433;-56
2022/07/05 08:01:34;;;;;;;;;;;26.90;46.60;;;;;;5083560;28;19913;-56
2022/07/05 08:04:14;;;;;;;;;;;27.00;46.60;;;;;;5103660;27;19930;-56
2022/07/05 08:06:55;;;;;;;;;;;27.40;45.80;;;;;;5114037;27;20320;-56
2022/07/05 08:09:35;;;;;;;;;;;27.30;44.60;;;;;;5124321;27;20368;-57
2022/07/05 08:12:14;;;;;;;;;;;27.00;46.60;;;;;;5137634;27;19915;-55
2022/07/05 08:14:54;;;;;;;;;;;26.80;46.70;;;;;;5102684;27;19961;-55
2022/07/05 08:17:34;;;;;;;;;;;26.50;45.60;;;;;;5107948;27;19916;-56
2022/07/05 08:23:11;;;;;;;;;;;25.90;47.80;;;;;;5124999;27;20517;-56
2022/07/05 08:25:51;;;;;;;;;;;25.60;48.80;;;;;;5103708;27;19916;-55
2022/07/05 08:28:31;;;;;;;;;;;25.50;48.00;;;;;;5104085;27;19953;-57
2022/07/05 08:31:11;;;;;;;;;;;25.40;48.00;;;;;;5104230;27;19961;-54
2022/07/05 08:33:51;;;;;;;;;;;25.20;49.80;;;;;;5124837;27;19912;-56
2022/07/05 08:36:31;;;;;;;;;;;25.20;51.50;;;;;;5097386;27;20321;-55
2022/07/05 08:39:10;;;;;;;;;;;25.50;50.10;;;;;;5124507;27;19916;-56
2022/07/05 08:41:51;;;;;;;;;;;26.00;49.00;;;;;;5124250;27;19919;-55
2022/07/05 08:44:35;;;;;;;;;;;26.30;47.60;;;;;;5124797;27;19933;-56
2022/07/05 08:47:15;;;;;;;;;;;26.10;46.20;;;;;;5143687;27;20210;-56
2022/07/05 08:49:56;;;;;;;;;;;25.90;48.10;;;;;;5103570;27;20381;-56
2022/07/05 08:52:36;;;;;;;;;;;26.00;48.10;;;;;;5104315;27;19953;-57
2022/07/05 08:55:16;;;;;;;;;;;26.20;46.80;;;;;;5104506;27;19985;-57
2022/07/05 08:57:56;;;;;;;;;;;26.40;47.30;;;;;;5123646;27;19915;-57
2022/07/05 09:00:37;;;;;;;;;;;26.50;46.80;;;;;;5118507;27;20372;-56
2022/07/05 09:03:17;;;;;;;;;;;26.30;46.10;;;;;;5123080;27;19911;-58
2022/07/05 09:05:57;;;;;;;;;;;26.10;48.70;;;;;;5121935;27;19912;-57
2022/07/05 09:08:39;;;;;;;;;;;25.90;48.60;;;;;;5103915;27;20435;-57
2022/07/05 09:11:24;;;;;;;;;;;25.60;50.00;;;;;;5103979;27;19916;-57
2022/07/05 09:14:04;;;;;;;;;;;25.60;50.30;;;;;;5104120;27;19926;-57
2022/07/05 09:16:44;;;;;;;;;;;25.80;48.60;;;;;;5115710;27;19939;-56
2022/07/05 09:19:24;;;;;;;;;;;25.80;48.20;;;;;;5104099;27;19946;-57
2022/07/05 09:22:04;;;;;;;;;;;25.70;47.50;;;;;;5124885;27;19912;-57
2022/07/05 09:24:46;;;;;;;;;;;25.60;47.70;;;;;;5104164;27;19926;-57
2022/07/05 09:27:27;;;;;;;;;;;25.60;47.20;;;;;;5123794;27;19916;-57
2022/07/05 09:30:07;;;;;;;;;;;25.80;47.90;;;;;;5103642;27;20262;-57
2022/07/05 09:32:48;;;;;;;;;;;25.90;46.00;;;;;;5124586;27;19912;-57
2022/07/05 09:35:28;;;;;;;;;;;26.00;45.70;;;;;;5124738;27;19916;-57
2022/07/05 09:38:18;;;;;;;;;;;26.30;45.10;;;;;;5124143;27;19912;-57
2022/07/05 09:41:00;;;;;;;;;;;26.40;45.00;;;;;;5124645;27;19912;-57
2022/07/05 09:43:40;;;;;;;;;;;26.30;43.30;;;;;;5104939;27;19930;-57
2022/07/05 09:46:30;;;;;;;;;;;26.30;42.30;;;;;;5103752;27;19912;-57
2022/07/05 09:49:10;;;;;;;;;;;26.30;43.50;;;;;;5124489;27;19920;-57
2022/07/05 09:51:50;;;;;;;;;;;26.50;43.20;;;;;;5124512;27;20291;-57
2022/07/05 09:54:30;;;;;;;;;;;26.60;42.80;;;;;;5104742;27;19950;-57
2022/07/05 09:57:24;;;;;;;;;;;26.60;41.60;;;;;;5092433;27;19966;-57
2022/07/05 10:00:06;;;;;;;;;;;26.60;41.10;;;;;;5114418;27;19912;-57
2022/07/05 10:02:47;;;;;;;;;;;26.70;42.10;;;;;;5100528;27;20607;-57
2022/07/05 10:05:29;;;;;;;;;;;26.70;41.40;;;;;;5102743;27;19953;-56
2022/07/05 10:08:11;;;;;;;;;;;26.70;40.60;;;;;;5121592;27;19911;-57
2022/07/05 10:10:51;;;;;;;;;;;26.80;41.30;;;;;;5107043;27;19946;-57
2022/07/05 10:13:32;;;;;;;;;;;27.00;39.00;;;;;;5145684;27;19915;-57
2022/07/05 10:16:12;;;;;;;;;;;27.30;40.50;;;;;;5118325;27;19912;-58
2022/07/05 10:18:52;;;;;;;;;;;27.70;38.20;;;;;;5089009;27;19928;-56
2022/07/05 10:21:33;;;;;;;;;;;28.00;40.30;;;;;;5096805;27;20302;-57
2022/07/05 10:24:13;;;;;;;;;;;28.20;39.60;;;;;;5118134;27;20438;-56
2022/07/05 10:26:52;;;;;;;;;;;28.30;37.20;;;;;;5089432;27;19934;-57
2022/07/05 10:29:33;;;;;;;;;;;28.50;36.30;;;;;;5123149;27;20118;-57
2022/07/05 10:32:15;;;;;;;;;;;28.60;35.80;;;;;;5104024;27;20377;-57
2022/07/05 10:34:55;;;;;;;;;;;28.80;35.00;;;;;;5103773;27;19953;-57
2022/07/05 10:37:35;;;;;;;;;;;29.10;35.80;;;;;;5098571;27;19920;-57
2022/07/05 10:40:18;;;;;;;;;;;29.10;32.60;;;;;;5123453;27;19911;-57
2022/07/05 10:42:59;;;;;;;;;;;29.00;35.10;;;;;;5108218;27;19916;-57
2022/07/05 10:45:41;;;;;;;;;;;28.80;36.30;;;;;;5103293;27;19953;-57
2022/07/05 10:48:21;;;;;;;;;;;28.80;37.10;;;;;;5123476;27;19961;-58
2022/07/05 10:51:14;;;;;;;;;;;28.70;34.60;;;;;;5123918;27;19911;-57
2022/07/05 10:54:04;;;;;;;;;;;28.70;28.30;;;;;;5124913;27;19915;-57
2022/07/05 10:57:04;;;;;;;;;;;28.90;31.10;;;;;;5123397;27;20501;-57
2022/07/05 11:00:04;;;;;;;;;;;29.00;30.00;;;;;;5124145;27;19916;-57
2022/07/05 11:02:44;;;;;;;;;;;29.10;28.90;;;;;;5125044;27;19915;-57
2022/07/05 11:05:25;;;;;;;;;;;29.20;29.10;;;;;;5124671;27;20258;-57
2022/07/05 11:08:05;;;;;;;;;;;29.30;28.80;;;;;;5097380;27;19923;-57
2022/07/05 11:10:58;;;;;;;;;;;29.30;29.10;;;;;;5117927;27;19981;-58
2022/07/05 11:13:40;;;;;;;;;;;29.20;32.50;;;;;;5121636;27;19912;-57
2022/07/05 11:16:24;;;;;;;;;;;29.20;30.70;;;;;;5122893;27;19965;-57
2022/07/05 11:19:07;;;;;;;;;;;29.20;30.00;;;;;;5103707;27;20450;-57
2022/07/05 11:22:00;;;;;;;;;;;29.00;29.80;;;;;;5124191;27;19912;-58
2022/07/05 11:24:41;;;;;;;;;;;28.80;29.40;;;;;;5103440;27;19938;-57
2022/07/05 11:27:22;;;;;;;;;;;28.80;30.50;;;;;;5110885;27;19916;-57
2022/07/05 11:30:02;;;;;;;;;;;29.20;29.50;;;;;;5104228;27;20395;-57
2022/07/05 11:32:42;;;;;;;;;;;29.60;28.90;;;;;;5125001;27;19912;-57
2022/07/05 11:35:29;;;;;;;;;;;30.10;28.80;;;;;;5083640;28;19920;-57
2022/07/05 11:38:09;;;;;;;;;;;30.30;27.60;;;;;;5098187;27;19925;-57
2022/07/05 11:40:49;;;;;;;;;;;30.70;28.30;;;;;;5123883;27;19916;-57
2022/07/05 11:43:30;;;;;;;;;;;31.00;28.70;;;;;;5105064;27;19918;-57
2022/07/05 11:46:11;;;;;;;;;;;30.90;29.20;;;;;;5120571;27;19922;-57
2022/07/05 11:48:51;;;;;;;;;;;30.80;28.10;;;;;;5125135;27;19918;-57
2022/07/05 11:51:30;;;;;;;;;;;30.20;27.70;;;;;;5124913;27;19912;-57
2022/07/05 11:54:11;;;;;;;;;;;29.60;27.60;;;;;;5124853;27;20269;-57
2022/07/05 11:56:51;;;;;;;;;;;29.70;27.60;;;;;;5115750;27;19916;-57
2022/07/05 11:59:32;;;;;;;;;;;30.00;27.50;;;;;;5124379;27;19916;-57
2022/07/05 12:02:11;;;;;;;;;;;30.00;28.30;;;;;;5080210;27;20358;-57
2022/07/05 12:04:52;;;;;;;;;;;29.90;28.00;;;;;;5124419;27;20377;-59
2022/07/05 12:07:33;;;;;;;;;;;29.60;28.00;;;;;;5123370;27;19926;-56
2022/07/05 12:13:11;;;;;;;;;;;29.40;28.10;;;;;;5123927;27;19916;-57
2022/07/05 12:15:59;;;;;;;;;;;29.10;27.10;;;;;;5123072;27;19916;-57
2022/07/05 12:18:48;;;;;;;;;;;28.60;27.50;;;;;;5124488;27;19920;-57
2022/07/05 12:21:28;;;;;;;;;;;28.10;28.30;;;;;;5123102;27;19923;-57
2022/07/05 12:24:08;;;;;;;;;;;28.00;28.80;;;;;;5125346;27;19922;-57
2022/07/05 12:26:48;;;;;;;;;;;27.90;28.90;;;;;;5099511;27;19916;-57
2022/07/05 12:29:28;;;;;;;;;;;28.00;29.20;;;;;;5124496;27;19927;-57
2022/07/05 12:32:11;;;;;;;;;;;28.50;28.40;;;;;;5124254;27;19919;-60
2022/07/05 12:35:03;;;;;;;;;;;29.10;26.90;;;;;;5124460;27;19912;-57
2022/07/05 12:37:44;;;;;;;;;;;29.50;26.40;;;;;;5102904;27;20320;-56
2022/07/05 12:40:24;;;;;;;;;;;29.80;27.50;;;;;;5124371;27;19918;-57
2022/07/05 12:43:05;;;;;;;;;;;30.10;27.30;;;;;;5124309;27;19912;-57
2022/07/05 12:46:00;;;;;;;;;;;29.90;26.00;;;;;;5123794;27;19912;-57
2022/07/05 12:48:40;;;;;;;;;;;29.20;25.30;;;;;;5124579;27;19920;-59
2022/07/05 12:51:31;;;;;;;;;;;28.40;26.70;;;;;;5124469;27;19955;-60
2022/07/05 13:00:17;;;;;;;;;;;27.30;26.50;;;;;;5124810;27;19912;-59
2022/07/05 13:02:58;;;;;;;;;;;27.00;28.00;;;;;;5125256;27;19915;-59
2022/07/05 13:05:37;;;;;;;;;;;26.90;28.50;;;;;;5125037;27;19912;-58
2022/07/05 13:08:29;;;;;;;;;;;26.80;29.10;;;;;;5096124;27;19973;-57
2022/07/05 13:11:08;;;;;;;;;;;27.20;27.90;;;;;;5124049;27;19916;-57
2022/07/05 13:13:48;;;;;;;;;;;27.90;27.40;;;;;;5104530;27;19919;-57
2022/07/05 13:16:28;;;;;;;;;;;28.30;27.00;;;;;;5097583;27;19934;-58
2022/07/05 13:19:08;;;;;;;;;;;28.80;26.00;;;;;;5124302;27;19912;-59
2022/07/05 13:21:49;;;;;;;;;;;28.90;26.80;;;;;;5124070;27;19922;-58
2022/07/05 13:24:29;;;;;;;;;;;29.20;25.70;;;;;;5123850;27;19920;-59
2022/07/05 13:27:10;;;;;;;;;;;29.10;26.10;;;;;;5102914;27;19926;-58
2022/07/05 13:29:50;;;;;;;;;;;28.90;25.80;;;;;;5082433;28;19912;-58
2022/07/05 13:32:31;;;;;;;;;;;28.40;25.90;;;;;;5125443;27;19912;-58
2022/07/05 13:35:12;;;;;;;;;;;28.20;26.60;;;;;;5103986;27;19926;-57
2022/07/05 13:37:51;;;;;;;;;;;28.40;25.80;;;;;;5123800;27;19912;-58
2022/07/05 13:40:31;;;;;;;;;;;28.90;25.70;;;;;;5124253;27;19918;-58
2022/07/05 13:43:11;;;;;;;;;;;29.20;25.10;;;;;;5124553;27;20443;-58
2022/07/05 13:45:51;;;;;;;;;;;29.10;25.20;;;;;;5123591;27;20323;-56
2022/07/05 13:48:31;;;;;;;;;;;29.20;25.00;;;;;;5124160;27;20388;-55
2022/07/05 13:51:10;;;;;;;;;;;28.90;25.90;;;;;;5123927;27;20277;-56
2022/07/05 13:53:51;;;;;;;;;;;28.30;26.20;;;;;;5125025;27;19945;-56
2022/07/05 13:56:31;;;;;;;;;;;27.90;27.10;;;;;;5119479;27;19919;-56
2022/07/05 13:59:12;;;;;;;;;;;27.70;26.80;;;;;;5104241;27;19962;-56
2022/07/05 14:01:51;;;;;;;;;;;27.90;26.80;;;;;;5125240;27;19918;-56
2022/07/05 14:04:33;;;;;;;;;;;28.50;27.70;;;;;;5125149;27;19916;-56
2022/07/05 14:07:13;;;;;;;;;;;29.10;26.40;;;;;;5124589;22;19924;-54
2022/07/05 14:09:52;;;;;;;;;;;29.80;25.40;;;;;;5124500;27;19916;-54
2022/07/05 14:12:32;;;;;;;;;;;30.40;25.80;;;;;;5124355;27;19912;-53
2022/07/05 14:15:12;;;;;;;;;;;30.70;24.90;;;;;;5124201;27;19912;-54
2022/07/05 14:17:52;;;;;;;;;;;30.60;24.10;;;;;;5090466;27;19919;-54
2022/07/05 14:20:32;;;;;;;;;;;30.40;23.90;;;;;;5124037;27;20442;-53
2022/07/05 14:23:13;;;;;;;;;;;30.40;24.70;;;;;;5103766;27;19916;-54
2022/07/05 14:25:53;;;;;;;;;;;30.50;24.00;;;;;;5123486;27;19911;-54
2022/07/05 14:28:33;;;;;;;;;;;30.40;24.20;;;;;;5124189;27;19938;-53
2022/07/05 14:31:13;;;;;;;;;;;30.40;24.00;;;;;;5124359;27;20380;-54
2022/07/05 14:33:53;;;;;;;;;;;30.50;24.60;;;;;;5124216;27;19915;-54
2022/07/05 14:36:32;;;;;;;;;;;30.60;24.50;;;;;;5142041;27;19911;-53
2022/07/05 14:39:12;;;;;;;;;;;30.70;24.30;;;;;;5124449;27;19916;-54
2022/07/05 14:41:52;;;;;;;;;;;30.70;24.00;;;;;;5117957;27;20151;-55
2022/07/05 14:44:32;;;;;;;;;;;30.90;24.50;;;;;;5123864;27;19919;-54
2022/07/05 14:47:18;;;;;;;;;;;31.10;24.60;;;;;;5114401;27;19916;-54
2022/07/05 14:49:58;;;;;;;;;;;31.30;23.70;;;;;;5123642;27;19915;-53
2022/07/05 14:52:38;;;;;;;;;;;31.30;22.80;;;;;;5083455;28;20421;-54
2022/07/05 14:55:18;;;;;;;;;;;31.10;23.70;;;;;;5124308;27;19916;-53
2022/07/05 14:57:57;;;;;;;;;;;31.10;22.80;;;;;;5109712;27;19916;-54
2022/07/05 15:00:37;;;;;;;;;;;30.80;22.60;;;;;;5124014;27;19918;-55
2022/07/05 15:03:19;;;;;;;;;;;30.70;23.30;;;;;;5124634;27;20079;-54
2022/07/05 15:06:03;;;;;;;;;;;30.90;23.40;;;;;;5103141;27;20285;-54
2022/07/05 15:08:43;;;;;;;;;;;30.90;23.20;;;;;;5124080;27;19912;-54
2022/07/05 15:11:23;;;;;;;;;;;30.90;24.20;;;;;;5123970;27;19942;-54
2022/07/05 15:14:04;;;;;;;;;;;30.80;24.10;;;;;;5124116;27;19912;-54
2022/07/05 15:16:44;;;;;;;;;;;30.70;23.70;;;;;;5121203;27;19912;-54
2022/07/05 15:19:24;;;;;;;;;;;30.70;23.20;;;;;;5103449;27;19985;-54
2022/07/05 15:22:04;;;;;;;;;;;29.70;24.60;;;;;;5124310;27;19916;-53
2022/07/05 15:24:44;;;;;;;;;;;29.00;24.70;;;;;;5146642;27;19915;-53
2022/07/05 15:27:25;;;;;;;;;;;28.60;25.20;;;;;;5123455;27;19926;-53
2022/07/05 15:30:06;;;;;;;;;;;28.50;24.90;;;;;;5123610;27;19953;-55
2022/07/05 15:32:47;;;;;;;;;;;30.00;23.60;;;;;;5098083;27;19912;-55
2022/07/05 15:35:26;;;;;;;;;;;31.50;22.00;;;;;;5148485;27;19938;-55
2022/07/05 15:38:06;;;;;;;;;;;31.20;22.40;;;;;;5101696;27;19969;-54
2022/07/05 15:40:46;;;;;;;;;;;32.00;22.60;;;;;;5123578;27;19946;-54
2022/07/05 15:43:28;;;;;;;;;;;33.40;21.10;;;;;;5124225;27;20419;-53
2022/07/05 15:46:07;;;;;;;;;;;34.80;19.50;;;;;;5082343;28;19932;-54
2022/07/05 15:48:48;;;;;;;;;;;35.60;18.90;;;;;;5095319;27;20526;-53
2022/07/05 15:51:28;;;;;;;;;;;35.70;18.80;;;;;;5105455;27;20095;-53
2022/07/05 15:54:08;;;;;;;;;;;36.00;18.20;;;;;;5124014;27;19912;-54